CheckWX is a tool to help pilots better visualize weather data.  It is not intended as a substitute for an official pre-flight weather briefing.

09:20:25 UTC

EDDH METAR
Hamburg Airport
Hamburg, Germany
Current

30 mins ago

EDDH 240850Z 24010KT 200V270 CAVOK 19/09 Q1013 NOSIG
Observed
May-24 @ 08:50 UTC
Wind
  • 240° at 10 KTS
Visibility
10,000+ meters
Flight Rules
VFR
Cloud Levels
  • Clear skies
Temperature
19°C / 66°F
Dewpoint
C / 48°F
Humidity
52%
Altimeter
29.91" Hg
Pressure
1012.92 hPa
Previous

60 mins ago

EDDH 240820Z 22010KT CAVOK 19/10 Q1013 NOSIG
Observed
May-24 @ 08:20 UTC
Wind
  • 220° at 10 KTS
Visibility
10,000+ meters
Flight Rules
VFR
Cloud Levels
  • Clear skies
Temperature
19°C / 66°F
Dewpoint
10°C / 50°F
Humidity
56%
Altimeter
29.91" Hg
Pressure
1012.92 hPa
Previous

2 hours ago

EDDH 240750Z 22010KT CAVOK 18/08 Q1013 NOSIG
Observed
May-24 @ 07:50 UTC
Wind
  • 220° at 10 KTS
Visibility
10,000+ meters
Flight Rules
VFR
Cloud Levels
  • Clear skies
Temperature
18°C / 64°F
Dewpoint
C / 46°F
Humidity
52%
Altimeter
29.91" Hg
Pressure
1012.92 hPa